createdAt,value
2017-11-13T00:02:51.415Z,4.29
2017-11-13T00:08:54.850Z,4.30
2017-11-13T00:14:58.328Z,4.36
2017-11-13T00:21:01.773Z,4.39
2017-11-13T00:27:05.248Z,4.38
2017-11-13T00:33:08.704Z,4.29
2017-11-13T00:39:12.960Z,4.28
2017-11-13T00:45:16.413Z,4.33
2017-11-13T00:51:19.876Z,4.30
2017-11-13T00:57:24.128Z,4.31
2017-11-13T01:03:27.589Z,4.31
2017-11-13T01:09:31.076Z,4.32
2017-11-13T01:15:34.529Z,4.34
2017-11-13T01:21:38.769Z,4.34
2017-11-13T01:27:42.241Z,4.35
2017-11-13T01:33:45.719Z,4.34
2017-11-13T01:39:49.177Z,4.44
2017-11-13T01:45:53.403Z,4.49
2017-11-13T01:51:56.866Z,4.42
2017-11-13T01:58:00.337Z,4.41
2017-11-13T02:04:03.794Z,4.45
2017-11-13T02:10:07.267Z,4.48
2017-11-13T02:16:10.740Z,4.50
2017-11-13T02:22:14.183Z,4.52
2017-11-13T02:28:18.410Z,4.48
2017-11-13T02:34:21.869Z,4.44
2017-11-13T02:40:26.089Z,4.56
2017-11-13T02:46:29.521Z,4.58
2017-11-13T02:52:32.974Z,4.60
2017-11-13T02:58:36.425Z,4.59
2017-11-13T03:04:40.670Z,4.64
2017-11-13T03:10:44.134Z,4.68
2017-11-13T03:16:47.597Z,4.67
2017-11-13T03:22:51.084Z,4.69
2017-11-13T03:28:54.548Z,4.69
2017-11-13T03:34:58.796Z,4.71
2017-11-13T03:41:02.257Z,4.80
2017-11-13T03:47:05.745Z,4.80
2017-11-13T03:53:09.179Z,4.77
2017-11-13T03:59:12.649Z,4.83
2017-11-13T04:05:16.222Z,4.86
2017-11-13T04:11:19.681Z,4.78
2017-11-13T04:17:23.181Z,4.78
2017-11-13T04:23:26.656Z,4.76
2017-11-13T04:29:30.127Z,4.79
2017-11-13T04:35:33.582Z,4.78
2017-11-13T04:41:37.844Z,4.78
2017-11-13T04:47:41.318Z,4.75
2017-11-13T04:53:44.787Z,4.81
2017-11-13T04:59:48.250Z,4.83
2017-11-13T05:05:52.452Z,4.91
2017-11-13T05:11:56.681Z,4.96
2017-11-13T05:18:00.143Z,5.01
2017-11-13T05:24:03.702Z,5.03
2017-11-13T05:30:07.154Z,5.06
2017-11-13T05:36:10.619Z,5.01
2017-11-13T05:42:14.043Z,5.03
2017-11-13T05:48:17.540Z,5.04
2017-11-13T05:54:21.762Z,5.05
2017-11-13T06:00:25.227Z,5.00
2017-11-13T06:06:29.454Z,4.96
2017-11-13T06:12:32.918Z,4.93
2017-11-13T06:18:37.168Z,4.85
2017-11-13T06:24:40.621Z,4.87
2017-11-13T06:30:44.080Z,4.78
2017-11-13T06:36:48.313Z,4.67
2017-11-13T06:42:51.918Z,4.53
2017-11-13T06:48:55.438Z,4.54
2017-11-13T06:54:58.894Z,4.43
2017-11-13T07:01:02.370Z,4.41
2017-11-13T07:07:05.827Z,4.46
2017-11-13T07:13:09.298Z,4.47
2017-11-13T07:19:13.538Z,4.60
2017-11-13T07:25:17.011Z,4.65
2017-11-13T07:31:20.470Z,4.77
2017-11-13T07:37:24.703Z,4.84
2017-11-13T07:43:28.177Z,5.00
2017-11-13T07:49:31.629Z,5.09
2017-11-13T07:55:35.840Z,5.09
2017-11-13T08:01:40.082Z,5.15
2017-11-13T08:07:43.551Z,5.21
2017-11-13T08:13:47.032Z,5.39
2017-11-13T08:19:50.500Z,5.48
2017-11-13T08:25:53.976Z,5.48
2017-11-13T08:31:58.190Z,5.57
2017-11-13T08:38:01.652Z,5.58
2017-11-13T08:44:05.891Z,5.54
2017-11-13T08:50:09.318Z,5.60
2017-11-13T08:56:12.829Z,5.57
2017-11-13T09:02:16.327Z,5.50
2017-11-13T09:08:19.783Z,5.59
2017-11-13T09:14:24.011Z,5.84
2017-11-13T09:20:27.487Z,5.89
2017-11-13T09:26:31.824Z,5.72
2017-11-13T09:32:35.267Z,5.68
2017-11-13T09:38:39.519Z,5.57
2017-11-13T09:44:42.975Z,5.49
2017-11-13T09:50:46.444Z,5.45
2017-11-13T09:56:50.665Z,5.57
2017-11-13T10:02:54.121Z,5.56
2017-11-13T10:08:58.399Z,5.46
2017-11-13T10:15:02.665Z,5.58
2017-11-13T10:21:06.121Z,5.70
2017-11-13T10:27:09.567Z,5.81
2017-11-13T10:33:13.019Z,5.88
2017-11-13T10:39:16.477Z,5.98
2017-11-13T10:45:19.918Z,6.27
2017-11-13T10:51:23.385Z,6.47
2017-11-13T10:57:26.882Z,6.57
2017-11-13T11:03:30.341Z,6.78
2017-11-13T11:09:33.808Z,7.08
2017-11-13T11:15:38.144Z,7.37
2017-11-13T11:21:43.493Z,7.32
2017-11-13T11:27:46.960Z,7.48
2017-11-13T11:33:50.794Z,7.47
2017-11-13T11:39:54.352Z,7.46
2017-11-13T11:46:01.253Z,7.40
2017-11-13T11:52:04.697Z,7.06
2017-11-13T11:58:08.153Z,7.08
2017-11-13T12:04:11.619Z,7.10
2017-11-13T12:10:15.087Z,6.67
2017-11-13T12:16:18.559Z,6.53
2017-11-13T12:22:22.039Z,6.65
2017-11-13T12:28:26.277Z,6.59
2017-11-13T12:34:29.761Z,6.56
2017-11-13T12:40:33.227Z,6.48
2017-11-13T12:46:36.689Z,6.55
2017-11-13T12:52:40.906Z,6.61
2017-11-13T12:58:44.386Z,6.70
2017-11-13T13:04:47.841Z,6.84
2017-11-13T13:10:51.324Z,6.86
2017-11-13T13:16:54.779Z,6.83
2017-11-13T13:22:58.248Z,6.97
2017-11-13T13:29:01.745Z,7.06
2017-11-13T13:35:05.179Z,7.31
2017-11-13T13:41:09.404Z,7.54
2017-11-13T13:47:12.862Z,7.21
2017-11-13T13:53:17.104Z,7.14
2017-11-13T13:59:20.584Z,7.21
2017-11-13T14:05:24.102Z,7.26
2017-11-13T14:11:27.654Z,7.23
2017-11-13T14:17:31.100Z,7.56
2017-11-13T14:23:35.333Z,7.26
2017-11-13T14:29:38.784Z,7.09
2017-11-13T14:35:43.005Z,6.97
2017-11-13T14:41:46.521Z,6.82
2017-11-13T14:47:50.137Z,6.55
2017-11-13T14:53:53.606Z,6.30
2017-11-13T14:59:57.110Z,5.96
2017-11-13T15:06:01.347Z,5.80
2017-11-13T15:12:04.808Z,5.68
2017-11-13T15:18:09.055Z,5.39
2017-11-13T15:24:12.506Z,4.91
2017-11-13T15:30:15.977Z,4.60
2017-11-13T15:36:20.221Z,4.48
2017-11-13T15:42:23.694Z,4.50
2017-11-13T15:48:27.174Z,4.48
2017-11-13T15:54:30.624Z,4.38
2017-11-13T16:00:34.850Z,4.08
2017-11-13T16:06:38.320Z,3.92
2017-11-13T16:12:42.570Z,3.84
2017-11-13T16:18:46.036Z,3.72
2017-11-13T16:24:49.507Z,3.51
2017-11-13T16:30:52.964Z,3.38
2017-11-13T16:36:57.216Z,3.53
2017-11-13T16:43:00.713Z,3.45
2017-11-13T16:49:04.205Z,3.59
2017-11-13T16:55:07.772Z,3.54
2017-11-13T17:01:11.362Z,3.46
2017-11-13T17:07:14.912Z,3.40
2017-11-13T17:13:18.452Z,3.29
2017-11-13T17:19:22.330Z,3.25
2017-11-13T17:25:25.776Z,3.23
2017-11-13T17:31:29.255Z,3.30
2017-11-13T17:37:32.737Z,3.53
2017-11-13T17:43:36.853Z,3.51
2017-11-13T17:49:40.351Z,3.42
2017-11-13T17:55:43.821Z,3.52
2017-11-13T18:01:47.275Z,3.61
2017-11-13T18:07:51.489Z,3.69
2017-11-13T18:13:54.946Z,3.68
2017-11-13T18:19:58.391Z,3.79
2017-11-13T18:26:01.869Z,3.86
2017-11-13T18:32:05.321Z,4.08
2017-11-13T18:38:09.706Z,4.19
2017-11-13T18:44:13.935Z,4.19
2017-11-13T18:50:17.461Z,4.12
2017-11-13T18:56:21.008Z,3.99
2017-11-13T19:02:24.473Z,3.84
2017-11-13T19:08:29.035Z,3.70
2017-11-13T19:14:32.503Z,3.53
2017-11-13T19:20:35.966Z,3.61
2017-11-13T19:26:39.421Z,3.48
2017-11-13T19:32:42.882Z,3.44
2017-11-13T19:38:46.357Z,3.23
2017-11-13T19:44:50.234Z,3.27
2017-11-13T19:50:53.712Z,2.90
2017-11-13T19:56:57.163Z,2.93
2017-11-13T20:03:01.387Z,2.76
2017-11-13T20:09:04.823Z,2.64
2017-11-13T20:15:08.290Z,2.51
2017-11-13T20:21:11.739Z,2.51
2017-11-13T20:27:15.231Z,2.49
2017-11-13T20:33:18.681Z,2.67
2017-11-13T20:39:22.928Z,2.95
2017-11-13T20:45:26.356Z,3.02
2017-11-13T20:51:30.608Z,2.80
2017-11-13T20:57:34.073Z,2.75
2017-11-13T21:03:37.530Z,2.84
2017-11-13T21:09:41.764Z,2.76
2017-11-13T21:15:45.235Z,2.68
2017-11-13T21:21:48.709Z,2.55
2017-11-13T21:27:52.937Z,2.52
2017-11-13T21:33:56.418Z,2.48
2017-11-13T21:39:59.890Z,2.49
2017-11-13T21:46:03.369Z,2.36
2017-11-13T21:52:06.861Z,2.35
2017-11-13T21:58:10.331Z,2.59
2017-11-13T22:04:13.957Z,2.71
2017-11-13T22:10:17.406Z,2.83
2017-11-13T22:16:20.863Z,2.90
2017-11-13T22:22:24.327Z,2.98
2017-11-13T22:28:27.785Z,3.48
2017-11-13T22:34:31.272Z,3.45
2017-11-13T22:40:34.753Z,3.53
2017-11-13T22:46:38.364Z,3.69
2017-11-13T22:52:41.829Z,3.99
2017-11-13T22:58:45.338Z,4.25
2017-11-13T23:04:48.782Z,4.38
2017-11-13T23:10:52.246Z,4.24
2017-11-13T23:16:55.693Z,4.22
2017-11-13T23:22:59.424Z,4.08
2017-11-13T23:29:02.882Z,4.04
2017-11-13T23:35:07.118Z,4.14
2017-11-13T23:41:10.576Z,4.25
2017-11-13T23:47:14.825Z,4.42
2017-11-13T23:53:18.306Z,4.52
2017-11-13T23:59:21.764Z,4.21
